This is the latest recevied weather packets stored in our database for station/object PY2KO-3. If no packets are shown the sender has not sent any weather packets the latest 10 day(s).
| Time | Temp. | Humidity | Pressure | Rain* | Wind** | Luminosity | Snow |
|---|---|---|---|---|---|---|---|
| 1777304953 | 31.67° C | 43% | 1012.4 hPa | - | - | - | - |
| 1777304056 | 31.67° C | 45% | 1012.5 hPa | - | - | - | - |
| 1777303152 | 31.11° C | 45% | 1012.6 hPa | - | - | - | - |
| 1777302252 | 30.56° C | 44% | 1012.9 hPa | - | - | - | - |
| 1777301352 | 31.11° C | 45% | 1013.1 hPa | - | - | - | - |
| 1777300451 | 30° C | 47% | 1013.4 hPa | - | - | - | - |
| 1777299555 | 30° C | 47% | 1013.9 hPa | - | - | - | - |
| 1777298652 | 30° C | 48% | 1014.4 hPa | - | - | - | - |
| 1777297752 | 28.89° C | 52% | 1015.2 hPa | - | - | - | - |
| 1777296852 | 27.78° C | 54% | 1015.7 hPa | - | - | - | - |
| 1777295956 | 27.22° C | 55% | 1015.9 hPa | - | - | - | - |
| 1777295052 | 27.78° C | 54% | 1015.6 hPa | - | - | - | - |
| 1777294154 | 27.22° C | 55% | 1015.8 hPa | - | - | - | - |
| 1777293255 | 26.67° C | 58% | 1016.1 hPa | - | - | - | - |
| 1777292353 | 25.56° C | 62% | 1016.1 hPa | - | - | - | - |
| 1777291454 | 25° C | 67% | 1016.1 hPa | - | - | - | - |
| 1777290552 | 25° C | 73% | 1016.2 hPa | - | - | - | - |
| 1777289652 | 22.78° C | 81% | 1016.8 hPa | - | - | - | - |
| 1777288752 | 22.22° C | 83% | 1016.9 hPa | - | - | - | - |
| 1777287852 | 22.22° C | 80% | 1016.8 hPa | - | - | - | - |
| 1777286953 | 21.67° C | 81% | 1016.8 hPa | - | - | - | - |
| 1777286054 | 21.11° C | 83% | 1016.8 hPa | - | - | - | - |
| 1777285157 | 20.56° C | 87% | 1016.6 hPa | - | - | - | - |
| 1777284259 | 20° C | 86% | 1016.9 hPa | - | - | - | - |
| 1777283353 | 19.44° C | 87% | 1016.8 hPa | - | - | - | - |
* Rain since midnight (hover to see other rain measurements)
** Current wind speed in m/s (hover to see current wind gust speed)